createdAt,value
2023-05-08T00:02:11.039Z,100344.09
2023-05-08T00:04:37.660Z,100344.19
2023-05-08T00:09:43.231Z,100347.75
2023-05-08T00:12:09.845Z,100345.09
2023-05-08T00:14:36.356Z,100344.19
2023-05-08T00:17:03.250Z,100348.63
2023-05-08T00:19:29.865Z,100338.03
2023-05-08T00:21:56.524Z,100347.75
2023-05-08T00:24:23.077Z,100346.91
2023-05-08T00:26:49.656Z,100340.03
2023-05-08T00:29:16.260Z,100344.56
2023-05-08T00:31:42.857Z,100348.16
2023-05-08T00:34:09.407Z,100345.59
2023-05-08T00:36:35.981Z,100344.66
2023-05-08T00:39:02.570Z,100342.88
2023-05-08T00:41:29.432Z,100346.28
2023-05-08T00:43:55.982Z,100348.94
2023-05-08T00:46:22.785Z,100347.97
2023-05-08T00:48:49.328Z,100354.97
2023-05-08T00:51:16.410Z,100350.53
2023-05-08T00:53:44.504Z,100354.88
2023-05-08T00:56:14.286Z,100347.13
2023-05-08T00:58:42.184Z,100347.97
2023-05-08T01:01:08.948Z,100354.97
2023-05-08T01:03:36.294Z,100357.63
2023-05-08T01:06:04.843Z,100353.28
2023-05-08T01:08:32.279Z,100354.22
2023-05-08T01:11:22.532Z,100348.34
2023-05-08T01:14:07.850Z,100351.94
2023-05-08T01:16:46.549Z,100351.94
2023-05-08T01:19:48.737Z,100345.06
2023-05-08T01:22:33.665Z,100340.72
2023-05-08T01:25:09.405Z,100350.44
2023-05-08T01:27:44.929Z,100348.84
2023-05-08T01:30:45.490Z,100349.03
2023-05-08T01:33:27.343Z,100349.13
2023-05-08T01:36:00.596Z,100348.19
2023-05-08T01:38:47.919Z,100351.22
2023-05-08T01:41:25.056Z,100352.94
2023-05-08T01:44:15.685Z,100352.25
2023-05-08T01:46:48.017Z,100349.50
2023-05-08T01:49:25.427Z,100342.72
2023-05-08T01:52:03.335Z,100344.63
2023-05-08T01:54:56.515Z,100343.00
2023-05-08T01:57:26.799Z,100348.41
2023-05-08T01:59:56.090Z,100345.94
2023-05-08T02:02:23.320Z,100340.72
2023-05-08T02:04:51.864Z,100347.06
2023-05-08T02:07:22.593Z,100349.06
2023-05-08T02:09:51.544Z,100357.09
2023-05-08T02:12:19.666Z,100346.69
2023-05-08T02:14:48.621Z,100359.19
2023-05-08T02:17:18.641Z,100355.75
2023-05-08T02:19:47.386Z,100366.44
2023-05-08T02:22:15.235Z,100364.75
2023-05-08T02:24:43.685Z,100371.81
2023-05-08T02:27:12.365Z,100368.25
2023-05-08T02:29:39.079Z,100374.38
2023-05-08T02:32:08.805Z,100366.53
2023-05-08T02:34:37.171Z,100361.22
2023-05-08T02:37:05.867Z,100358.50
2023-05-08T02:39:35.706Z,100363.88
2023-05-08T02:42:03.960Z,100361.16
2023-05-08T02:44:31.020Z,100362.19
2023-05-08T02:47:04.228Z,100361.44
2023-05-08T02:49:44.183Z,100362.56
2023-05-08T02:52:19.172Z,100359.94
2023-05-08T02:55:01.404Z,100353.94
2023-05-08T02:57:34.150Z,100350.28
2023-05-08T03:00:14.741Z,100344.41
2023-05-08T03:02:48.288Z,100345.28
2023-05-08T03:05:20.780Z,100341.84
2023-05-08T03:07:55.964Z,100338.47
2023-05-08T03:10:28.156Z,100336.69
2023-05-08T03:12:56.934Z,100330.53
2023-05-08T03:15:41.996Z,100330.69
2023-05-08T03:18:12.528Z,100332.50
2023-05-08T03:20:42.930Z,100331.75
2023-05-08T03:23:12.461Z,100333.66
2023-05-08T03:25:42.311Z,100335.50
2023-05-08T03:28:09.976Z,100331.19
2023-05-08T03:30:41.993Z,100328.72
2023-05-08T03:33:11.564Z,100334.84
2023-05-08T03:35:39.457Z,100330.59
2023-05-08T03:38:06.971Z,100326.28
2023-05-08T03:40:42.595Z,100330.75
2023-05-08T03:43:10.204Z,100328.09
2023-05-08T03:45:40.096Z,100334.34
2023-05-08T03:48:08.814Z,100330.84
2023-05-08T03:50:37.050Z,100329.06
2023-05-08T03:53:04.001Z,100322.06
2023-05-08T03:55:31.723Z,100330.94
2023-05-08T03:58:05.983Z,100329.41
2023-05-08T04:00:39.825Z,100329.53
2023-05-08T04:03:27.728Z,100327.81
2023-05-08T04:06:13.841Z,100323.56
2023-05-08T04:08:48.320Z,100320.81
2023-05-08T04:11:51.953Z,100329.97
2023-05-08T04:14:21.399Z,100332.50
2023-05-08T04:16:51.762Z,100329.03
2023-05-08T04:19:24.811Z,100336.97
2023-05-08T04:21:55.750Z,100326.41
2023-05-08T04:24:25.446Z,100329.69
2023-05-08T04:26:52.265Z,100328.00
2023-05-08T04:29:19.341Z,100336.03
2023-05-08T04:31:46.751Z,100336.13
2023-05-08T04:34:14.093Z,100337.88
2023-05-08T04:36:40.759Z,100337.06
2023-05-08T04:39:07.294Z,100336.97
2023-05-08T04:41:35.109Z,100338.66
2023-05-08T04:44:03.834Z,100340.38
2023-05-08T04:46:30.445Z,100343.66
2023-05-08T04:48:57.090Z,100347.00
2023-05-08T04:51:23.498Z,100351.25
2023-05-08T04:53:49.908Z,100351.91
2023-05-08T04:56:16.466Z,100351.78
2023-05-08T04:58:42.908Z,100362.16
2023-05-08T05:01:09.543Z,100363.66
2023-05-08T05:03:36.175Z,100372.94
2023-05-08T05:06:02.827Z,100369.09
2023-05-08T05:08:29.436Z,100380.88
2023-05-08T05:10:56.110Z,100385.66
2023-05-08T05:13:22.727Z,100393.97
2023-05-08T05:15:51.421Z,100387.34
2023-05-08T05:18:18.442Z,100380.63
2023-05-08T05:20:44.940Z,100381.09
2023-05-08T05:23:12.250Z,100384.31
2023-05-08T05:25:38.913Z,100384.13
2023-05-08T05:28:05.382Z,100385.72
2023-05-08T05:30:31.905Z,100383.00
2023-05-08T05:32:58.911Z,100381.09
2023-05-08T05:35:25.763Z,100381.84
2023-05-08T05:37:52.452Z,100384.28
2023-05-08T05:40:19.040Z,100386.84
2023-05-08T05:42:49.725Z,100386.75
2023-05-08T05:45:16.198Z,100393.56
2023-05-08T05:47:50.137Z,100389.13
2023-05-08T05:50:21.350Z,100389.75
2023-05-08T05:52:48.003Z,100389.56
2023-05-08T05:55:14.738Z,100386.72
2023-05-08T05:57:41.474Z,100390.78
2023-05-08T06:00:08.879Z,100386.13
2023-05-08T06:02:37.017Z,100389.44
2023-05-08T06:05:04.887Z,100386.41
2023-05-08T06:09:59.756Z,100381.28
2023-05-08T06:12:27.956Z,100380.03
2023-05-08T06:14:54.906Z,100384.19
2023-05-08T06:17:22.238Z,100378.47
2023-05-08T06:19:50.613Z,100375.53
2023-05-08T06:22:18.426Z,100379.53
2023-05-08T06:24:45.352Z,100380.22
2023-05-08T06:27:13.329Z,100379.16
2023-05-08T06:29:39.957Z,100372.59
2023-05-08T06:32:06.646Z,100367.19
2023-05-08T06:34:33.251Z,100363.34
2023-05-08T06:36:59.869Z,100357.75
2023-05-08T06:39:26.422Z,100357.31
2023-05-08T06:41:53.304Z,100356.81
2023-05-08T06:44:19.876Z,100352.91
2023-05-08T06:46:46.478Z,100355.97
2023-05-08T06:49:13.125Z,100357.47
2023-05-08T06:51:39.721Z,100353.66
2023-05-08T06:54:08.345Z,100352.59
2023-05-08T06:56:35.649Z,100353.22
2023-05-08T06:59:08.397Z,100363.63
2023-05-08T07:01:37.411Z,100361.69
2023-05-08T07:04:05.023Z,100360.63
2023-05-08T07:06:31.586Z,100361.41
2023-05-08T07:08:58.168Z,100356.91
2023-05-08T07:11:24.870Z,100363.81
2023-05-08T07:13:51.416Z,100369.81
2023-05-08T07:16:18.045Z,100370.31
2023-05-08T07:18:44.814Z,100374.47
2023-05-08T07:21:11.372Z,100385.31
2023-05-08T07:23:37.865Z,100387.41
2023-05-08T07:26:04.521Z,100383.38
2023-05-08T07:28:30.999Z,100390.69
2023-05-08T07:30:57.736Z,100386.28
2023-05-08T07:33:24.920Z,100383.81
2023-05-08T07:35:51.478Z,100392.59
2023-05-08T07:38:18.117Z,100388.94
2023-05-08T07:40:45.882Z,100389.72
2023-05-08T07:43:13.186Z,100390.41
2023-05-08T07:45:39.646Z,100391.91
2023-05-08T07:48:07.660Z,100387.13
2023-05-08T07:50:34.421Z,100390.44
2023-05-08T07:53:01.071Z,100392.03
2023-05-08T07:55:27.553Z,100390.81
2023-05-08T07:57:54.136Z,100400.41
2023-05-08T08:00:20.802Z,100397.41
2023-05-08T08:02:47.523Z,100393.53
2023-05-08T08:05:14.334Z,100392.28
2023-05-08T08:07:41.242Z,100389.34
2023-05-08T08:10:08.464Z,100392.47
2023-05-08T08:12:35.229Z,100389.50
2023-05-08T08:15:01.760Z,100394.44
2023-05-08T08:17:29.052Z,100387.94
2023-05-08T08:19:56.463Z,100385.22
2023-05-08T08:22:24.128Z,100392.19
2023-05-08T08:24:52.385Z,100387.75
2023-05-08T08:27:20.736Z,100384.28
2023-05-08T08:29:47.302Z,100388.84
2023-05-08T08:32:13.938Z,100386.50
2023-05-08T08:34:40.502Z,100394.81
2023-05-08T08:37:07.030Z,100393.47
2023-05-08T08:39:34.538Z,100387.72
2023-05-08T08:42:01.502Z,100389.88
2023-05-08T08:44:28.316Z,100390.16
2023-05-08T08:46:55.662Z,100399.47
2023-05-08T08:49:29.813Z,100399.91
2023-05-08T08:52:01.468Z,100394.00
2023-05-08T08:54:31.530Z,100403.19
2023-05-08T08:57:01.902Z,100403.63
2023-05-08T08:59:29.940Z,100398.69
2023-05-08T09:02:06.423Z,100401.84
2023-05-08T09:04:33.106Z,100401.13
2023-05-08T09:07:00.352Z,100393.41
2023-05-08T09:09:28.819Z,100391.88
2023-05-08T09:11:55.460Z,100387.81
2023-05-08T09:14:22.105Z,100392.75
2023-05-08T09:16:48.769Z,100389.63
2023-05-08T09:19:16.320Z,100384.88
2023-05-08T09:21:43.026Z,100389.66
2023-05-08T09:24:09.958Z,100385.44
2023-05-08T09:26:40.218Z,100391.91
2023-05-08T09:29:09.668Z,100385.00
2023-05-08T09:31:39.843Z,100377.09
2023-05-08T09:34:11.207Z,100383.44
2023-05-08T09:36:40.086Z,100383.38
2023-05-08T09:39:11.749Z,100379.16
2023-05-08T09:41:38.392Z,100380.84
2023-05-08T09:44:09.864Z,100377.44
2023-05-08T09:46:36.464Z,100381.94
2023-05-08T09:49:03.937Z,100382.88
2023-05-08T09:51:32.038Z,100386.69
2023-05-08T09:54:00.449Z,100392.00
2023-05-08T09:56:38.868Z,100394.06
2023-05-08T09:59:22.203Z,100391.88
2023-05-08T10:01:48.928Z,100392.38
2023-05-08T10:04:15.486Z,100394.03
2023-05-08T10:06:42.069Z,100386.06
2023-05-08T10:09:15.748Z,100381.81
2023-05-08T10:11:53.085Z,100386.41
2023-05-08T10:14:20.468Z,100384.47
2023-05-08T10:16:54.322Z,100388.53
2023-05-08T10:19:25.438Z,100382.88
2023-05-08T10:21:54.820Z,100384.78
2023-05-08T10:24:41.647Z,100391.00
2023-05-08T10:27:19.483Z,100393.75
2023-05-08T10:29:56.932Z,100390.13
2023-05-08T10:32:24.902Z,100387.91
2023-05-08T10:35:00.127Z,100388.50
2023-05-08T10:37:29.738Z,100381.41
2023-05-08T10:39:58.245Z,100373.44
2023-05-08T10:42:26.086Z,100380.75
2023-05-08T10:44:53.861Z,100382.53
2023-05-08T10:47:33.562Z,100379.38
2023-05-08T10:50:17.484Z,100375.72
2023-05-08T10:53:03.338Z,100371.88
2023-05-08T10:55:32.230Z,100375.78
2023-05-08T10:58:02.496Z,100374.97
2023-05-08T11:00:51.873Z,100369.75
2023-05-08T11:03:30.402Z,100369.75
2023-05-08T11:05:59.773Z,100366.59
2023-05-08T11:08:28.110Z,100365.91
2023-05-08T11:11:05.154Z,100366.91
2023-05-08T11:13:38.397Z,100359.31
2023-05-08T11:16:11.000Z,100359.69
2023-05-08T11:18:49.056Z,100354.97
2023-05-08T11:21:23.953Z,100359.00
2023-05-08T11:23:57.971Z,100352.91
2023-05-08T11:26:40.394Z,100355.44
2023-05-08T11:29:17.117Z,100354.94
2023-05-08T11:31:50.808Z,100357.25
2023-05-08T11:34:41.925Z,100357.91
2023-05-08T11:37:19.155Z,100347.25
2023-05-08T11:39:46.424Z,100358.13
2023-05-08T11:42:24.956Z,100356.22
2023-05-08T11:45:08.216Z,100352.16
2023-05-08T11:47:42.012Z,100350.72
2023-05-08T11:50:09.816Z,100352.72
2023-05-08T11:52:37.779Z,100356.91
2023-05-08T11:55:06.217Z,100361.09
2023-05-08T11:57:33.366Z,100351.63
2023-05-08T12:00:08.008Z,100348.41
2023-05-08T12:02:43.758Z,100352.84
2023-05-08T12:05:11.633Z,100353.88
2023-05-08T12:07:46.558Z,100344.91
2023-05-08T12:12:53.604Z,100343.47
2023-05-08T12:15:20.126Z,100346.09
2023-05-08T12:17:47.053Z,100339.53
2023-05-08T12:20:16.263Z,100343.63
2023-05-08T12:22:50.589Z,100332.38
2023-05-08T12:25:18.373Z,100343.56
2023-05-08T12:27:45.524Z,100339.00
2023-05-08T12:30:14.770Z,100335.41
2023-05-08T12:32:42.445Z,100327.53
2023-05-08T12:35:10.813Z,100330.41
2023-05-08T12:37:37.408Z,100326.59
2023-05-08T12:40:05.419Z,100337.56
2023-05-08T12:42:50.999Z,100336.63
2023-05-08T12:45:27.077Z,100338.03
2023-05-08T12:47:58.200Z,100330.94
2023-05-08T12:50:27.814Z,100333.81
2023-05-08T12:52:54.433Z,100337.75
2023-05-08T12:55:28.974Z,100329.38
2023-05-08T12:58:15.103Z,100328.06
2023-05-08T13:00:46.679Z,100334.09
2023-05-08T13:03:21.710Z,100322.16
2023-05-08T13:05:48.488Z,100319.16
2023-05-08T13:08:15.082Z,100317.84
2023-05-08T13:10:46.277Z,100327.38
2023-05-08T13:13:18.639Z,100321.13
2023-05-08T13:15:45.958Z,100320.38
2023-05-08T13:18:13.126Z,100323.06
2023-05-08T13:20:40.286Z,100321.00
2023-05-08T13:23:07.482Z,100320.63
2023-05-08T13:25:36.149Z,100316.69
2023-05-08T13:28:03.716Z,100322.25
2023-05-08T13:30:30.288Z,100315.47
2023-05-08T13:32:57.093Z,100312.06
2023-05-08T13:35:24.959Z,100309.47
2023-05-08T13:37:51.685Z,100306.88
2023-05-08T13:40:18.231Z,100307.78
2023-05-08T13:42:44.717Z,100307.59
2023-05-08T13:45:13.345Z,100307.84
2023-05-08T13:47:43.208Z,100298.00
2023-05-08T13:50:11.278Z,100288.56
2023-05-08T13:52:39.045Z,100291.84
2023-05-08T13:55:13.197Z,100284.69
2023-05-08T13:57:40.570Z,100288.19
2023-05-08T14:00:09.423Z,100293.47
2023-05-08T14:02:37.513Z,100287.84
2023-05-08T14:05:05.683Z,100289.81
2023-05-08T14:07:32.281Z,100282.72
2023-05-08T14:09:58.843Z,100284.84
2023-05-08T14:12:25.421Z,100285.84
2023-05-08T14:14:51.930Z,100282.25
2023-05-08T14:17:18.434Z,100289.47
2023-05-08T14:19:46.198Z,100277.97
2023-05-08T14:22:13.008Z,100281.97
2023-05-08T14:24:39.957Z,100276.63
2023-05-08T14:27:06.633Z,100281.06
2023-05-08T14:29:34.198Z,100278.31
2023-05-08T14:32:01.471Z,100269.34
2023-05-08T14:34:28.107Z,100271.53
2023-05-08T14:36:54.984Z,100267.88
2023-05-08T14:39:21.885Z,100267.50
2023-05-08T14:42:05.803Z,100260.84
2023-05-08T14:44:35.108Z,100263.63
2023-05-08T14:47:01.627Z,100257.50
2023-05-08T14:49:37.298Z,100251.22
2023-05-08T14:52:05.668Z,100250.13
2023-05-08T14:54:32.396Z,100242.25
2023-05-08T14:56:59.035Z,100243.88
2023-05-08T14:59:25.701Z,100244.50
2023-05-08T15:01:52.337Z,100240.06
2023-05-08T15:04:19.120Z,100242.97
2023-05-08T15:06:45.782Z,100247.19
2023-05-08T15:09:12.399Z,100242.28
2023-05-08T15:11:38.931Z,100245.09
2023-05-08T15:14:06.152Z,100245.97
2023-05-08T15:16:32.776Z,100241.88
2023-05-08T15:19:00.018Z,100236.63
2023-05-08T15:21:27.410Z,100235.81
2023-05-08T15:23:54.908Z,100232.53
2023-05-08T15:26:22.390Z,100233.16
2023-05-08T15:28:49.352Z,100224.94
2023-05-08T15:31:16.123Z,100228.16
2023-05-08T15:33:44.921Z,100230.16
2023-05-08T15:36:13.383Z,100232.78
2023-05-08T15:38:41.034Z,100234.47
2023-05-08T15:41:08.094Z,100229.66
2023-05-08T15:43:34.549Z,100227.25
2023-05-08T15:46:01.193Z,100224.91
2023-05-08T15:48:27.798Z,100223.28
2023-05-08T15:50:54.631Z,100226.66
2023-05-08T15:53:21.280Z,100237.81
2023-05-08T15:55:47.880Z,100232.97
2023-05-08T15:58:14.533Z,100236.78
2023-05-08T16:00:45.324Z,100234.47
2023-05-08T16:03:12.316Z,100235.97
2023-05-08T16:05:39.622Z,100239.88
2023-05-08T16:08:07.574Z,100231.84
2023-05-08T16:10:34.386Z,100228.47
2023-05-08T16:13:00.984Z,100233.31
2023-05-08T16:15:27.549Z,100226.34
2023-05-08T16:17:54.214Z,100234.72
2023-05-08T16:20:20.982Z,100234.03
2023-05-08T16:22:47.482Z,100231.91
2023-05-08T16:25:14.537Z,100243.06
2023-05-08T16:27:41.351Z,100238.22
2023-05-08T16:30:08.330Z,100224.94
2023-05-08T16:32:34.838Z,100229.88
2023-05-08T16:35:01.315Z,100222.78
2023-05-08T16:37:27.778Z,100216.28
2023-05-08T16:39:54.218Z,100217.56
2023-05-08T16:42:20.915Z,100208.38
2023-05-08T16:44:47.490Z,100212.00
2023-05-08T16:47:13.912Z,100204.50
2023-05-08T16:49:40.617Z,100207.19
2023-05-08T16:52:07.328Z,100208.66
2023-05-08T16:54:33.990Z,100210.91
2023-05-08T16:57:00.472Z,100198.88
2023-05-08T16:59:26.950Z,100211.03
2023-05-08T17:01:53.666Z,100205.59
2023-05-08T17:04:20.122Z,100224.09
2023-05-08T17:06:46.642Z,100219.00
2023-05-08T17:09:13.147Z,100218.22
2023-05-08T17:11:39.846Z,100215.78
2023-05-08T17:14:06.444Z,100211.41
2023-05-08T17:16:33.526Z,100211.59
2023-05-08T17:19:00.529Z,100213.44
2023-05-08T17:21:27.164Z,100206.88
2023-05-08T17:23:53.725Z,100207.03
2023-05-08T17:26:21.737Z,100211.50
2023-05-08T17:28:48.380Z,100212.47
2023-05-08T17:31:16.027Z,100216.72
2023-05-08T17:33:42.612Z,100208.31
2023-05-08T17:36:09.374Z,100210.34
2023-05-08T17:38:38.353Z,100211.28
2023-05-08T17:41:04.912Z,100213.78
2023-05-08T17:43:31.527Z,100212.50
2023-05-08T17:45:58.138Z,100209.38
2023-05-08T17:48:24.717Z,100215.19
2023-05-08T17:50:51.322Z,100205.84
2023-05-08T17:53:17.883Z,100211.63
2023-05-08T17:55:44.393Z,100211.34
2023-05-08T17:58:10.805Z,100199.09
2023-05-08T18:00:37.762Z,100203.34
2023-05-08T18:03:04.678Z,100209.47
2023-05-08T18:05:31.589Z,100204.63
2023-05-08T18:07:58.208Z,100208.88
2023-05-08T18:12:53.676Z,100202.81
2023-05-08T18:15:20.224Z,100203.00
2023-05-08T18:17:47.517Z,100204.34
2023-05-08T18:20:14.477Z,100201.16
2023-05-08T18:22:41.137Z,100205.84
2023-05-08T18:25:08.134Z,100199.78
2023-05-08T18:27:34.652Z,100202.75
2023-05-08T18:30:01.096Z,100208.09
2023-05-08T18:32:27.789Z,100200.88
2023-05-08T18:34:54.431Z,100203.69
2023-05-08T18:37:21.012Z,100206.53
2023-05-08T18:39:47.465Z,100205.66
2023-05-08T18:42:16.659Z,100214.53
2023-05-08T18:44:43.195Z,100219.19
2023-05-08T18:47:09.765Z,100215.63
2023-05-08T18:49:36.306Z,100224.47
2023-05-08T18:52:03.094Z,100224.25
2023-05-08T18:54:29.521Z,100223.06
2023-05-08T18:56:56.166Z,100221.84
2023-05-08T18:59:22.752Z,100221.63
2023-05-08T19:01:50.592Z,100215.03
2023-05-08T19:04:17.180Z,100208.31
2023-05-08T19:06:43.801Z,100207.94
2023-05-08T19:09:10.459Z,100221.00
2023-05-08T19:11:37.101Z,100218.91
2023-05-08T19:14:04.005Z,100226.59
2023-05-08T19:16:30.542Z,100222.53
2023-05-08T19:18:57.236Z,100226.88
2023-05-08T19:21:23.842Z,100228.31
2023-05-08T19:23:51.002Z,100233.44
2023-05-08T19:26:18.312Z,100231.03
2023-05-08T19:28:44.810Z,100235.19
2023-05-08T19:31:11.428Z,100227.44
2023-05-08T19:33:38.023Z,100232.28
2023-05-08T19:36:04.570Z,100235.25
2023-05-08T19:38:31.139Z,100231.38
2023-05-08T19:40:58.143Z,100237.84
2023-05-08T19:43:26.089Z,100247.22
2023-05-08T19:45:52.933Z,100235.09
2023-05-08T19:48:20.184Z,100244.44
2023-05-08T19:50:46.883Z,100250.25
2023-05-08T19:53:13.624Z,100247.03
2023-05-08T19:55:40.148Z,100242.97
2023-05-08T19:58:06.720Z,100232.69
2023-05-08T20:00:33.182Z,100231.44
2023-05-08T20:02:59.731Z,100238.09
2023-05-08T20:05:26.335Z,100221.78
2023-05-08T20:07:52.884Z,100221.34
2023-05-08T20:10:19.430Z,100221.81
2023-05-08T20:12:45.960Z,100224.91
2023-05-08T20:15:12.724Z,100220.00
2023-05-08T20:17:39.295Z,100217.78
2023-05-08T20:20:06.513Z,100220.88
2023-05-08T20:22:32.969Z,100220.50
2023-05-08T20:25:01.060Z,100217.41
2023-05-08T20:27:28.622Z,100209.00
2023-05-08T20:29:55.053Z,100208.41
2023-05-08T20:32:21.635Z,100200.84
2023-05-08T20:34:48.229Z,100205.63
2023-05-08T20:37:16.024Z,100207.63
2023-05-08T20:39:43.322Z,100205.38
2023-05-08T20:42:09.765Z,100200.19
2023-05-08T20:44:36.306Z,100196.94
2023-05-08T20:47:02.869Z,100190.91
2023-05-08T20:49:29.384Z,100187.50
2023-05-08T20:51:56.068Z,100188.50
2023-05-08T20:54:22.680Z,100192.19
2023-05-08T20:56:49.304Z,100185.97
2023-05-08T20:59:16.727Z,100181.75
2023-05-08T21:01:43.465Z,100192.47
2023-05-08T21:04:10.171Z,100189.09
2023-05-08T21:06:36.611Z,100189.25
2023-05-08T21:09:04.572Z,100182.34
2023-05-08T21:11:33.247Z,100183.47
2023-05-08T21:13:59.707Z,100182.06
2023-05-08T21:16:26.887Z,100178.81
2023-05-08T21:18:55.344Z,100182.75
2023-05-08T21:21:23.330Z,100172.50
2023-05-08T21:23:49.941Z,100178.13
2023-05-08T21:26:16.437Z,100169.56
2023-05-08T21:28:42.963Z,100177.16
2023-05-08T21:31:09.464Z,100173.91
2023-05-08T21:33:36.086Z,100170.84
2023-05-08T21:36:02.679Z,100171.41
2023-05-08T21:38:29.794Z,100165.63
2023-05-08T21:40:56.331Z,100158.88
2023-05-08T21:43:22.872Z,100169.88
2023-05-08T21:45:49.438Z,100164.09
2023-05-08T21:48:16.095Z,100165.38
2023-05-08T21:50:42.697Z,100162.13
2023-05-08T21:53:09.198Z,100158.03
2023-05-08T21:55:35.750Z,100155.66
2023-05-08T21:58:02.191Z,100156.75
2023-05-08T22:00:28.923Z,100156.22
2023-05-08T22:02:55.602Z,100152.00
2023-05-08T22:05:23.570Z,100150.44
2023-05-08T22:07:50.145Z,100152.53
2023-05-08T22:10:16.829Z,100151.94
2023-05-08T22:12:43.377Z,100153.19
2023-05-08T22:15:25.586Z,100149.84
2023-05-08T22:17:56.036Z,100147.44
2023-05-08T22:20:22.661Z,100141.53
2023-05-08T22:22:49.261Z,100141.66
2023-05-08T22:25:16.128Z,100130.56
2023-05-08T22:27:42.768Z,100132.38
2023-05-08T22:30:09.495Z,100128.16
2023-05-08T22:32:36.647Z,100129.28
2023-05-08T22:35:03.501Z,100129.41
2023-05-08T22:37:30.398Z,100129.69
2023-05-08T22:39:56.944Z,100124.50
2023-05-08T22:42:24.219Z,100123.78
2023-05-08T22:44:51.162Z,100118.56
2023-05-08T22:47:17.819Z,100121.50
2023-05-08T22:49:44.271Z,100122.50
2023-05-08T22:52:10.819Z,100112.94
2023-05-08T22:54:37.399Z,100111.38
2023-05-08T22:57:03.960Z,100105.34
2023-05-08T22:59:30.507Z,100109.97
2023-05-08T23:01:58.198Z,100104.91
2023-05-08T23:04:25.004Z,100104.91
2023-05-08T23:06:51.641Z,100097.88
2023-05-08T23:09:18.179Z,100099.84
2023-05-08T23:11:44.640Z,100104.34
2023-05-08T23:14:11.083Z,100095.63
2023-05-08T23:16:37.682Z,100102.06
2023-05-08T23:19:04.633Z,100098.56
2023-05-08T23:21:32.042Z,100090.56
2023-05-08T23:23:58.983Z,100087.16
2023-05-08T23:26:26.083Z,100089.72
2023-05-08T23:28:52.660Z,100088.72
2023-05-08T23:31:19.275Z,100084.25
2023-05-08T23:33:45.930Z,100082.44
2023-05-08T23:36:12.349Z,100081.44
2023-05-08T23:38:38.879Z,100080.44
2023-05-08T23:41:05.477Z,100076.78
2023-05-08T23:43:32.067Z,100073.16
2023-05-08T23:45:58.708Z,100071.19
2023-05-08T23:48:26.509Z,100064.03
2023-05-08T23:50:53.433Z,100062.19
2023-05-08T23:53:20.003Z,100056.84
2023-05-08T23:55:49.853Z,100062.19
2023-05-08T23:58:17.368Z,100055.91
